Time;durP1;ratioP1;P1;durP2;ratioP2;P2;SDS_P1;SDS_P2;PMS_P1;PMS_P2;Temp;Humidity;BMP_temperature;BMP_pressure;BME280_temperature;BME280_humidity;BME280_pressure;Samples;Min_cycle;Max_cycle;Signal;HPM_P1;HPM_P2
2023/12/31 00:01:35;;;;;;;4.43;2.92;;;14.40;98.10;;;;;;5113738;28;20034;-45
2023/12/31 00:04:04;;;;;;;3.70;2.70;;;14.40;98.10;;;;;;5113729;28;20035;-45
2023/12/31 00:06:29;;;;;;;4.78;3.00;;;14.30;98.20;;;;;;5113837;28;20061;-45
2023/12/31 00:08:55;;;;;;;5.50;2.90;;;14.30;98.20;;;;;;5113568;28;20127;-45
2023/12/31 00:11:21;;;;;;;4.32;3.00;;;14.30;98.20;;;;;;5113537;28;20031;-45
2023/12/31 00:13:47;;;;;;;4.38;2.90;;;14.20;98.30;;;;;;5113458;28;20015;-45
2023/12/31 00:16:14;;;;;;;7.20;3.35;;;14.20;98.30;;;;;;5114022;28;20477;-44
2023/12/31 00:18:40;;;;;;;6.15;3.05;;;14.20;98.30;;;;;;5113736;28;20027;-44
2023/12/31 00:21:06;;;;;;;5.63;3.00;;;14.10;98.40;;;;;;5113680;28;20554;-45
2023/12/31 00:23:32;;;;;;;4.15;2.58;;;14.10;98.40;;;;;;5113479;28;20046;-45
2023/12/31 00:25:57;;;;;;;4.50;2.78;;;14.10;98.40;;;;;;5111954;28;20027;-45
2023/12/31 00:28:23;;;;;;;4.50;2.53;;;14.10;98.50;;;;;;5113289;28;20019;-44
2023/12/31 00:30:49;;;;;;;4.75;2.63;;;14.00;98.50;;;;;;5113552;28;20081;-45
2023/12/31 00:33:15;;;;;;;4.43;2.88;;;14.00;98.50;;;;;;5113486;28;20412;-45
2023/12/31 00:35:40;;;;;;;3.47;2.42;;;14.00;98.60;;;;;;5113575;28;20032;-45
2023/12/31 00:38:06;;;;;;;3.65;2.85;;;14.00;98.60;;;;;;5113107;28;20080;-45
2023/12/31 00:40:31;;;;;;;4.85;2.80;;;13.90;98.60;;;;;;5113391;28;20538;-44
2023/12/31 00:42:57;;;;;;;4.82;3.10;;;13.90;98.60;;;;;;5112812;28;20024;-45
2023/12/31 00:45:23;;;;;;;4.80;2.80;;;13.90;98.70;;;;;;5113250;28;20515;-45
2023/12/31 00:47:48;;;;;;;4.30;2.50;;;13.80;98.70;;;;;;5113284;28;20034;-45
2023/12/31 00:50:14;;;;;;;3.38;2.45;;;13.80;98.70;;;;;;5113243;28;20055;-45
2023/12/31 00:52:40;;;;;;;3.83;2.97;;;13.80;98.70;;;;;;5112810;28;20302;-43
2023/12/31 00:55:06;;;;;;;4.60;3.00;;;13.80;98.70;;;;;;5112617;28;20031;-45
2023/12/31 00:57:32;;;;;;;4.30;2.80;;;13.80;98.80;;;;;;5112544;28;20032;-45
2023/12/31 00:59:58;;;;;;;3.58;2.67;;;13.80;98.80;;;;;;5112572;28;20505;-45
2023/12/31 01:02:23;;;;;;;3.45;2.45;;;13.70;98.80;;;;;;5112712;28;20031;-45
2023/12/31 01:04:49;;;;;;;3.50;2.55;;;13.70;98.80;;;;;;5112746;28;20028;-45
2023/12/31 01:07:14;;;;;;;4.18;2.47;;;13.70;98.80;;;;;;5112467;28;20028;-45
2023/12/31 01:09:40;;;;;;;6.28;2.75;;;13.70;98.90;;;;;;5112396;28;20127;-44
2023/12/31 01:12:06;;;;;;;2.90;2.20;;;13.70;98.90;;;;;;5112454;28;20024;-45
2023/12/31 01:14:35;;;;;;;4.93;2.70;;;13.60;98.90;;;;;;5112339;28;20024;-45
2023/12/31 01:17:01;;;;;;;4.50;2.70;;;13.60;98.90;;;;;;5112494;28;20019;-45
2023/12/31 01:19:26;;;;;;;3.80;2.67;;;13.60;99.00;;;;;;5113601;28;20386;-44
2023/12/31 01:21:52;;;;;;;3.50;2.45;;;13.60;99.00;;;;;;5112494;28;20039;-44
2023/12/31 01:24:18;;;;;;;3.75;2.08;;;13.60;99.00;;;;;;5114405;28;20032;-45
2023/12/31 01:26:43;;;;;;;3.85;2.42;;;13.60;99.00;;;;;;5112579;28;20032;-45
2023/12/31 01:29:09;;;;;;;4.13;2.47;;;13.60;99.00;;;;;;5112780;28;20026;-44
2023/12/31 01:31:35;;;;;;;3.28;2.15;;;13.50;99.00;;;;;;5113198;28;20084;-45
2023/12/31 01:34:00;;;;;;;3.80;2.47;;;13.50;99.00;;;;;;5113163;28;20066;-45
2023/12/31 01:36:26;;;;;;;4.43;2.33;;;13.50;99.00;;;;;;5113978;28;20036;-45
2023/12/31 01:38:52;;;;;;;3.00;2.45;;;13.50;99.10;;;;;;5114119;28;20476;-44
2023/12/31 01:41:18;;;;;;;3.35;2.30;;;13.50;99.10;;;;;;5111860;28;20043;-45
2023/12/31 01:43:43;;;;;;;3.90;2.45;;;13.50;99.10;;;;;;5113024;28;20489;-44
2023/12/31 01:46:11;;;;;;;4.10;2.65;;;13.40;99.10;;;;;;5112558;28;20496;-44
2023/12/31 01:48:37;;;;;;;4.97;2.80;;;13.40;99.20;;;;;;5112650;28;20412;-45
2023/12/31 01:51:03;;;;;;;3.45;2.60;;;13.40;99.10;;;;;;5113151;28;20022;-45
2023/12/31 01:53:30;;;;;;;4.07;2.45;;;13.40;99.50;;;;;;5113146;28;20508;-45
2023/12/31 01:55:57;;;;;;;3.30;2.50;;;13.40;99.20;;;;;;5112750;28;20028;-45
2023/12/31 01:58:23;;;;;;;4.22;2.50;;;13.40;99.20;;;;;;5112946;28;20031;-45
2023/12/31 02:00:50;;;;;;;3.90;2.50;;;13.40;99.20;;;;;;5113278;28;20089;-45
2023/12/31 02:03:16;;;;;;;4.32;2.47;;;13.40;99.30;;;;;;5112731;28;20016;-45
2023/12/31 02:05:42;;;;;;;3.42;2.35;;;13.40;99.30;;;;;;5113385;28;20016;-45
2023/12/31 02:08:08;;;;;;;2.97;2.38;;;13.30;99.30;;;;;;5117192;28;20024;-45
2023/12/31 02:10:34;;;;;;;4.45;2.50;;;13.30;99.30;;;;;;5117307;28;20380;-45
2023/12/31 02:13:00;;;;;;;3.78;2.70;;;13.30;99.30;;;;;;5117092;27;20504;-45
2023/12/31 02:15:31;;;;;;;2.85;2.33;;;13.30;99.30;;;;;;5116588;28;20011;-44
2023/12/31 02:17:59;;;;;;;4.18;2.40;;;13.30;99.30;;;;;;5117130;28;20393;-45
2023/12/31 02:20:24;;;;;;;3.25;2.58;;;13.30;99.30;;;;;;5116496;28;20027;-44
2023/12/31 02:22:50;;;;;;;2.85;2.28;;;13.20;99.30;;;;;;5116863;28;20059;-45
2023/12/31 02:25:22;;;;;;;3.30;2.53;;;13.20;99.30;;;;;;5116351;28;20035;-45
2023/12/31 02:27:48;;;;;;;3.95;2.60;;;13.20;99.30;;;;;;5115773;28;20032;-45
2023/12/31 02:30:14;;;;;;;3.17;2.20;;;13.20;99.30;;;;;;5116364;28;20024;-44
2023/12/31 02:32:39;;;;;;;3.78;2.20;;;13.20;99.30;;;;;;5116773;28;20030;-45
2023/12/31 02:35:05;;;;;;;4.03;2.58;;;13.20;99.30;;;;;;5116266;28;20069;-45
2023/12/31 02:37:31;;;;;;;3.35;2.20;;;13.20;99.30;;;;;;5117117;28;20118;-45
2023/12/31 02:39:56;;;;;;;4.50;2.60;;;13.20;99.40;;;;;;5115270;28;20042;-45
2023/12/31 02:42:22;;;;;;;3.25;2.28;;;13.20;99.40;;;;;;5116220;28;20366;-45
2023/12/31 02:44:48;;;;;;;3.40;2.13;;;13.20;99.40;;;;;;5116953;28;20024;-45
2023/12/31 02:47:14;;;;;;;3.45;2.30;;;13.20;99.40;;;;;;5115552;28;20072;-45
2023/12/31 02:49:39;;;;;;;4.13;2.50;;;13.10;99.40;;;;;;5116303;28;20016;-45
2023/12/31 02:52:05;;;;;;;3.05;2.15;;;13.10;99.40;;;;;;5115744;27;20068;-45
2023/12/31 02:54:31;;;;;;;3.80;2.20;;;13.10;99.40;;;;;;5115435;28;20110;-44
2023/12/31 02:56:57;;;;;;;4.10;2.40;;;13.10;99.50;;;;;;5115916;28;20029;-46
2023/12/31 02:59:22;;;;;;;4.90;2.58;;;13.10;99.50;;;;;;5117300;28;20023;-44
2023/12/31 03:01:49;;;;;;;2.80;2.30;;;13.10;99.50;;;;;;5115082;28;20030;-45
2023/12/31 03:04:14;;;;;;;3.33;2.40;;;13.10;99.50;;;;;;5116297;28;20031;-45
2023/12/31 03:06:40;;;;;;;3.72;2.47;;;13.10;99.60;;;;;;5115270;28;20032;-45
2023/12/31 03:09:06;;;;;;;3.72;2.30;;;13.10;99.60;;;;;;5114688;28;20381;-43
2023/12/31 03:11:36;;;;;;;3.30;2.05;;;13.10;99.60;;;;;;5115716;28;20448;-45
2023/12/31 03:14:02;;;;;;;3.92;2.13;;;13.10;99.90;;;;;;5114725;28;20495;-45
2023/12/31 03:16:27;;;;;;;2.42;2.00;;;13.10;99.60;;;;;;5114811;28;20106;-45
2023/12/31 03:18:53;;;;;;;3.63;2.22;;;13.10;99.70;;;;;;5116016;28;20066;-45
2023/12/31 03:21:19;;;;;;;2.88;2.38;;;13.10;99.70;;;;;;5114508;28;20032;-45
2023/12/31 03:23:45;;;;;;;2.63;2.30;;;13.00;99.60;;;;;;5115062;28;20035;-45
2023/12/31 03:26:11;;;;;;;3.53;2.47;;;13.00;99.70;;;;;;5114952;28;20264;-44
2023/12/31 03:28:37;;;;;;;3.38;2.42;;;13.00;99.60;;;;;;5115115;28;20024;-45
2023/12/31 03:31:03;;;;;;;3.13;2.20;;;13.00;99.60;;;;;;5114759;28;20028;-45
2023/12/31 03:33:29;;;;;;;3.40;2.33;;;13.00;99.70;;;;;;5114947;28;20031;-45
2023/12/31 03:35:55;;;;;;;3.63;1.98;;;13.00;99.70;;;;;;5116002;28;20036;-44
2023/12/31 03:38:21;;;;;;;2.78;1.95;;;13.00;99.70;;;;;;5114332;28;20155;-45
2023/12/31 03:40:46;;;;;;;2.75;2.08;;;13.00;99.70;;;;;;5115273;28;20506;-45
2023/12/31 03:43:12;;;;;;;3.13;2.00;;;13.00;99.70;;;;;;5115890;28;20389;-44
2023/12/31 03:45:37;;;;;;;3.00;1.90;;;12.90;99.70;;;;;;5114558;28;20039;-44
2023/12/31 03:48:03;;;;;;;3.45;2.17;;;13.00;99.70;;;;;;5114594;28;20024;-45
2023/12/31 03:50:29;;;;;;;2.90;1.75;;;13.00;99.70;;;;;;5114325;28;20596;-45
2023/12/31 03:52:55;;;;;;;2.70;1.70;;;13.00;99.70;;;;;;5114799;28;20146;-45
2023/12/31 03:55:20;;;;;;;2.15;1.90;;;13.00;99.70;;;;;;5114175;28;20084;-45
2023/12/31 03:57:46;;;;;;;3.25;1.90;;;12.90;99.70;;;;;;5114682;28;20392;-45
2023/12/31 04:00:12;;;;;;;3.72;2.42;;;12.90;99.70;;;;;;5115823;28;20035;-45
2023/12/31 04:02:37;;;;;;;3.33;2.30;;;12.90;99.70;;;;;;5116155;28;20103;-45
2023/12/31 04:05:04;;;;;;;2.90;2.00;;;12.90;99.80;;;;;;5114890;28;20023;-45
2023/12/31 04:07:30;;;;;;;3.20;2.10;;;12.90;99.80;;;;;;5114258;28;20384;-45
2023/12/31 04:09:56;;;;;;;2.80;1.90;;;12.90;99.80;;;;;;5113429;28;20020;-44
2023/12/31 04:12:22;;;;;;;2.20;1.60;;;12.90;99.80;;;;;;5114001;28;20066;-45
2023/12/31 04:14:47;;;;;;;2.83;1.55;;;12.90;99.80;;;;;;5114587;28;20465;-45
2023/12/31 04:17:13;;;;;;;3.70;2.40;;;12.90;99.80;;;;;;5115220;28;20026;-45
2023/12/31 04:19:38;;;;;;;2.92;2.22;;;12.90;99.90;;;;;;5114656;28;20020;-45
2023/12/31 04:22:04;;;;;;;2.35;1.98;;;12.90;99.80;;;;;;5115269;28;20032;-45
2023/12/31 04:24:30;;;;;;;3.35;2.05;;;12.80;99.90;;;;;;5114337;28;20047;-45
2023/12/31 04:26:57;;;;;;;2.35;1.80;;;12.90;99.90;;;;;;5114587;28;20016;-45
2023/12/31 04:29:23;;;;;;;3.20;1.80;;;12.90;99.90;;;;;;5114374;28;20015;-45
2023/12/31 04:31:48;;;;;;;3.22;1.90;;;12.80;99.90;;;;;;5113695;28;20039;-44
2023/12/31 04:34:14;;;;;;;2.75;2.05;;;12.80;99.90;;;;;;5113303;28;20016;-45
2023/12/31 04:36:43;;;;;;;2.75;1.88;;;12.80;99.90;;;;;;5113723;28;20500;-45
2023/12/31 04:39:09;;;;;;;1.67;1.58;;;12.80;99.90;;;;;;5115128;28;20030;-45
2023/12/31 04:41:36;;;;;;;2.65;1.80;;;12.80;99.90;;;;;;5114748;28;20054;-45
2023/12/31 04:44:02;;;;;;;2.95;1.83;;;12.80;99.90;;;;;;5114034;28;20032;-45
2023/12/31 04:46:27;;;;;;;2.75;1.67;;;12.80;99.90;;;;;;5114006;28;20030;-45
2023/12/31 04:48:53;;;;;;;2.60;1.80;;;12.80;99.90;;;;;;5114071;28;20023;-45
2023/12/31 04:51:29;;;;;;;3.08;1.90;;;12.80;99.90;;;;;;5113716;28;20024;-45
2023/12/31 04:53:56;;;;;;;3.10;1.70;;;12.80;99.90;;;;;;5114285;28;20031;-45
2023/12/31 04:56:24;;;;;;;4.82;1.95;;;12.80;99.90;;;;;;5113491;28;20477;-45
2023/12/31 04:58:51;;;;;;;2.60;1.80;;;12.80;99.90;;;;;;5114276;28;20097;-44
2023/12/31 05:01:17;;;;;;;1.88;1.60;;;12.80;99.90;;;;;;5113499;28;20076;-45
2023/12/31 05:03:47;;;;;;;2.75;1.92;;;12.80;99.90;;;;;;5113254;28;20032;-45
2023/12/31 05:06:13;;;;;;;3.00;1.90;;;12.80;99.90;;;;;;5112380;28;20037;-45
2023/12/31 05:08:43;;;;;;;2.78;1.73;;;12.80;99.90;;;;;;5112246;28;20705;-44
2023/12/31 05:11:14;;;;;;;2.25;1.90;;;12.80;99.90;;;;;;5113600;28;20423;-44
2023/12/31 05:13:42;;;;;;;2.28;1.60;;;12.70;99.90;;;;;;5114139;28;20490;-45
2023/12/31 05:16:14;;;;;;;2.28;1.75;;;12.80;99.90;;;;;;5112902;28;20024;-44
2023/12/31 05:18:41;;;;;;;1.95;1.70;;;12.70;99.90;;;;;;5112894;28;20023;-44
2023/12/31 05:21:06;;;;;;;1.67;1.48;;;12.70;99.90;;;;;;5113903;28;20089;-44
2023/12/31 05:23:32;;;;;;;2.85;1.60;;;12.70;99.90;;;;;;5112672;28;20544;-44
2023/12/31 05:25:58;;;;;;;2.22;1.67;;;12.70;99.90;;;;;;5113388;28;20031;-45
2023/12/31 05:28:23;;;;;;;2.80;1.85;;;12.70;99.90;;;;;;5112471;28;20145;-45
2023/12/31 05:30:49;;;;;;;3.90;1.90;;;12.70;99.90;;;;;;5111050;28;20024;-45
2023/12/31 05:33:14;;;;;;;1.92;1.52;;;12.70;99.90;;;;;;5113542;28;20072;-45
2023/12/31 05:35:40;;;;;;;2.13;1.65;;;12.70;99.90;;;;;;5113426;28;20362;-45
2023/12/31 05:38:06;;;;;;;2.05;1.63;;;12.70;99.90;;;;;;5112765;28;20024;-45
2023/12/31 05:40:32;;;;;;;2.25;1.55;;;12.70;99.90;;;;;;5111492;28;20126;-44
2023/12/31 05:42:57;;;;;;;2.45;1.75;;;12.70;99.90;;;;;;5112207;28;20099;-44
2023/12/31 05:45:23;;;;;;;3.17;1.65;;;12.70;99.90;;;;;;5113693;28;20028;-45
2023/12/31 05:47:48;;;;;;;2.50;1.80;;;12.70;99.90;;;;;;5112983;28;20027;-45
2023/12/31 05:50:15;;;;;;;2.20;1.50;;;12.70;99.90;;;;;;5112163;28;20037;-45
2023/12/31 05:52:40;;;;;;;2.22;1.55;;;12.70;99.90;;;;;;5113121;28;20077;-43
2023/12/31 05:55:07;;;;;;;2.38;1.70;;;12.60;99.90;;;;;;5112772;28;20019;-45
2023/12/31 05:57:32;;;;;;;2.22;1.70;;;12.70;99.90;;;;;;5112943;28;20034;-45
2023/12/31 06:00:00;;;;;;;2.58;1.70;;;12.60;99.90;;;;;;5113002;28;20024;-44
2023/12/31 06:02:26;;;;;;;2.22;1.65;;;12.60;99.90;;;;;;5112345;28;20063;-45
2023/12/31 06:04:51;;;;;;;1.85;1.42;;;12.60;99.90;;;;;;5113797;28;20051;-45
2023/12/31 06:07:17;;;;;;;1.70;1.42;;;12.70;99.90;;;;;;5112946;28;20130;-44
2023/12/31 06:09:43;;;;;;;2.03;1.50;;;12.60;99.90;;;;;;5112659;28;20024;-45
2023/12/31 06:12:08;;;;;;;2.75;1.50;;;12.60;99.90;;;;;;5111624;28;20023;-45
2023/12/31 06:14:34;;;;;;;1.90;1.50;;;12.60;99.90;;;;;;5112376;28;20020;-45
2023/12/31 06:17:00;;;;;;;2.35;1.60;;;12.60;99.90;;;;;;5112906;28;20066;-45
2023/12/31 06:19:25;;;;;;;2.17;1.60;;;12.60;99.90;;;;;;5113336;28;20169;-44
2023/12/31 06:21:52;;;;;;;1.90;1.65;;;12.60;99.90;;;;;;5113056;28;20023;-45
2023/12/31 06:24:17;;;;;;;2.40;2.05;;;12.60;99.90;;;;;;5112066;28;20487;-45
2023/12/31 06:26:43;;;;;;;2.40;1.63;;;12.60;99.90;;;;;;5113583;28;20159;-45
2023/12/31 06:29:08;;;;;;;2.58;1.63;;;12.60;99.90;;;;;;5112732;28;20393;-45
2023/12/31 06:31:35;;;;;;;2.30;1.60;;;12.60;99.90;;;;;;5112653;28;20031;-45
2023/12/31 06:34:00;;;;;;;2.30;1.58;;;12.60;99.90;;;;;;5112658;28;20018;-45
2023/12/31 06:36:26;;;;;;;2.20;1.67;;;12.60;99.90;;;;;;5112929;28;20463;-45
2023/12/31 06:38:52;;;;;;;2.08;1.60;;;12.60;99.90;;;;;;5112630;28;20058;-45
2023/12/31 06:41:21;;;;;;;2.10;1.40;;;12.60;99.90;;;;;;5111560;28;20028;-45
2023/12/31 06:43:47;;;;;;;3.42;1.88;;;12.60;99.90;;;;;;5112547;28;20016;-45
2023/12/31 06:46:12;;;;;;;2.30;1.50;;;12.60;99.90;;;;;;5111437;28;20028;-45
2023/12/31 06:48:38;;;;;;;2.92;1.70;;;12.60;99.90;;;;;;5111224;28;20027;-45
2023/12/31 06:51:05;;;;;;;2.55;1.40;;;12.60;99.90;;;;;;5111114;28;20024;-44
2023/12/31 06:53:33;;;;;;;2.60;1.48;;;12.60;99.90;;;;;;5114569;28;20031;-45
2023/12/31 06:56:03;;;;;;;2.55;1.50;;;12.50;99.90;;;;;;5115088;28;20442;-45
2023/12/31 06:58:29;;;;;;;1.98;1.58;;;12.50;99.90;;;;;;5115349;28;20039;-44
2023/12/31 07:00:54;;;;;;;1.65;1.10;;;12.50;99.90;;;;;;5115247;28;20047;-45
2023/12/31 07:03:20;;;;;;;9.15;1.65;;;12.50;99.90;;;;;;5116761;28;20019;-44
2023/12/31 07:05:47;;;;;;;3.03;1.50;;;12.50;99.90;;;;;;5114627;28;20027;-44
2023/12/31 07:08:13;;;;;;;2.67;1.48;;;12.50;99.90;;;;;;5117054;28;20026;-41
2023/12/31 07:10:39;;;;;;;1.75;1.38;;;12.50;99.90;;;;;;5115893;28;20393;-45
2023/12/31 07:13:05;;;;;;;1.60;1.33;;;12.50;99.90;;;;;;5114780;28;20380;-44
2023/12/31 07:15:30;;;;;;;2.60;1.63;;;12.50;99.90;;;;;;5114490;28;20427;-44
2023/12/31 07:17:57;;;;;;;1.90;1.50;;;12.50;99.90;;;;;;5115487;28;20459;-45
2023/12/31 07:20:23;;;;;;;3.33;1.50;;;12.50;99.90;;;;;;5116054;28;20404;-44
2023/12/31 07:22:49;;;;;;;1.98;1.67;;;12.50;99.90;;;;;;5114939;28;20114;-45
2023/12/31 07:25:14;;;;;;;2.05;1.52;;;12.50;99.90;;;;;;5115908;28;20023;-45
2023/12/31 07:27:40;;;;;;;2.10;1.77;;;12.50;99.90;;;;;;5114316;28;20363;-45
2023/12/31 07:30:06;;;;;;;2.00;1.50;;;12.50;99.90;;;;;;5115128;28;20019;-45
2023/12/31 07:32:32;;;;;;;2.55;1.58;;;12.50;99.90;;;;;;5116477;28;20027;-44
2023/12/31 07:34:57;;;;;;;2.22;1.60;;;12.50;99.90;;;;;;5114893;28;20019;-45
2023/12/31 07:37:23;;;;;;;2.47;1.60;;;12.50;99.90;;;;;;5114305;28;20107;-45
2023/12/31 07:39:49;;;;;;;2.95;1.65;;;12.50;99.90;;;;;;5115066;28;20077;-45
2023/12/31 07:42:15;;;;;;;1.65;1.30;;;12.50;99.90;;;;;;5114166;28;20024;-44
2023/12/31 07:44:41;;;;;;;2.17;1.40;;;12.50;99.90;;;;;;5114098;28;20131;-45
2023/12/31 07:47:06;;;;;;;3.08;1.60;;;12.50;99.90;;;;;;5115300;28;20078;-45
2023/12/31 07:49:33;;;;;;;1.83;1.50;;;12.50;99.90;;;;;;5116642;28;20046;-45
2023/12/31 07:51:59;;;;;;;2.50;1.52;;;12.50;99.90;;;;;;5115555;28;20022;-45
2023/12/31 07:54:25;;;;;;;1.85;1.40;;;12.50;99.90;;;;;;5115277;28;20024;-45
2023/12/31 07:56:51;;;;;;;1.95;1.60;;;12.50;99.90;;;;;;5114538;28;20031;-45
2023/12/31 07:59:17;;;;;;;1.50;1.30;;;12.50;99.90;;;;;;5114789;28;20397;-45
2023/12/31 08:01:43;;;;;;;1.60;1.42;;;12.50;99.90;;;;;;5113801;28;20019;-44
2023/12/31 08:04:08;;;;;;;2.00;1.33;;;12.60;99.90;;;;;;5115351;28;20090;-44
2023/12/31 08:06:34;;;;;;;2.15;1.58;;;12.60;99.90;;;;;;5114676;28;20459;-44
2023/12/31 08:09:00;;;;;;;2.45;1.40;;;12.60;99.90;;;;;;5115621;28;20038;-45
2023/12/31 08:11:26;;;;;;;2.00;1.75;;;12.60;99.90;;;;;;5113953;28;20023;-45
2023/12/31 08:13:51;;;;;;;1.80;1.30;;;12.70;99.90;;;;;;5113512;28;20024;-45
2023/12/31 08:16:19;;;;;;;2.70;1.50;;;12.70;99.90;;;;;;5113338;28;20020;-45
2023/12/31 08:18:45;;;;;;;2.67;1.40;;;12.70;99.90;;;;;;5114444;28;20024;-45
2023/12/31 08:21:11;;;;;;;2.08;1.58;;;12.80;99.90;;;;;;5114204;28;20031;-45
2023/12/31 08:23:36;;;;;;;2.30;1.35;;;12.80;99.90;;;;;;5113687;28;20034;-45
2023/12/31 08:26:03;;;;;;;1.73;1.17;;;12.90;99.90;;;;;;5114381;28;20024;-45
2023/12/31 08:28:29;;;;;;;2.08;1.35;;;12.90;99.90;;;;;;5115410;28;20050;-45
2023/12/31 08:30:55;;;;;;;1.55;1.40;;;13.00;99.90;;;;;;5113240;28;20012;-45
2023/12/31 08:33:21;;;;;;;2.90;1.60;;;13.00;99.90;;;;;;5113139;28;20154;-45
2023/12/31 08:35:46;;;;;;;2.20;1.40;;;13.10;99.80;;;;;;5113975;28;20027;-45
2023/12/31 08:38:12;;;;;;;1.88;1.30;;;13.10;99.70;;;;;;5114700;28;20393;-45
2023/12/31 08:40:37;;;;;;;2.22;1.45;;;13.20;99.70;;;;;;5114152;28;20118;-45
2023/12/31 08:43:03;;;;;;;1.70;1.38;;;13.20;99.60;;;;;;5112988;28;20393;-44
2023/12/31 08:45:29;;;;;;;2.00;1.40;;;13.20;99.50;;;;;;5114427;28;20027;-45
2023/12/31 08:47:55;;;;;;;1.50;1.25;;;13.30;99.40;;;;;;5112746;28;20434;-44
2023/12/31 08:50:21;;;;;;;2.10;1.52;;;13.40;99.40;;;;;;5112944;28;20440;-45
2023/12/31 08:52:47;;;;;;;1.80;1.20;;;13.40;99.30;;;;;;5112774;28;20453;-44
2023/12/31 08:55:13;;;;;;;1.80;1.33;;;13.50;99.30;;;;;;5113811;28;20082;-44
2023/12/31 08:57:49;;;;;;;1.45;1.02;;;13.50;99.20;;;;;;5112574;28;20019;-44
2023/12/31 09:00:17;;;;;;;1.17;1.05;;;13.60;99.50;;;;;;5113178;28;20031;-45
2023/12/31 09:02:43;;;;;;;3.22;1.20;;;13.60;99.10;;;;;;5114008;28;20023;-45
2023/12/31 09:05:09;;;;;;;1.48;1.20;;;13.70;99.00;;;;;;5113399;28;20534;-44
2023/12/31 09:07:36;;;;;;;3.20;1.33;;;13.70;99.00;;;;;;5112861;28;20046;-45
2023/12/31 09:10:05;;;;;;;2.20;1.33;;;13.70;98.90;;;;;;5112462;28;20035;-45
2023/12/31 09:12:32;;;;;;;2.42;1.50;;;13.80;98.80;;;;;;5114003;28;20024;-45
2023/12/31 09:14:58;;;;;;;1.70;1.27;;;13.80;98.80;;;;;;5113511;28;20630;-45
2023/12/31 09:17:24;;;;;;;1.50;1.10;;;13.90;98.70;;;;;;5112337;28;20043;-45
2023/12/31 09:19:52;;;;;;;1.08;0.98;;;13.90;98.60;;;;;;5114014;28;20076;-45
2023/12/31 09:22:18;;;;;;;1.20;0.93;;;14.00;98.60;;;;;;5113371;28;20034;-44
2023/12/31 09:24:44;;;;;;;1.63;1.23;;;14.00;98.50;;;;;;5114686;28;20035;-44
2023/12/31 09:27:10;;;;;;;1.35;1.13;;;14.10;98.50;;;;;;5113093;28;20473;-45
2023/12/31 09:29:36;;;;;;;1.50;1.10;;;14.10;98.40;;;;;;5113104;28;20023;-45
2023/12/31 09:32:03;;;;;;;1.58;1.10;;;14.10;98.40;;;;;;5111943;28;20114;-45
2023/12/31 09:34:29;;;;;;;1.48;1.00;;;14.20;98.30;;;;;;5112640;28;20080;-44
2023/12/31 09:36:54;;;;;;;1.63;1.30;;;14.20;98.30;;;;;;5113189;28;20027;-45
2023/12/31 09:39:20;;;;;;;1.50;1.15;;;14.20;98.30;;;;;;5113200;28;20024;-45
2023/12/31 09:41:51;;;;;;;2.15;1.13;;;14.30;98.20;;;;;;5111288;28;20023;-45
2023/12/31 09:44:19;;;;;;;1.63;1.13;;;14.30;98.10;;;;;;5110757;28;20020;-45
2023/12/31 09:47:06;;;;;;;1.60;1.00;;;14.40;98.00;;;;;;5111660;28;20051;-45
2023/12/31 09:49:34;;;;;;;1.25;1.05;;;14.40;98.00;;;;;;5112860;28;20532;-45
2023/12/31 09:52:07;;;;;;;1.58;1.15;;;14.50;98.00;;;;;;5114242;28;20055;-45
2023/12/31 09:54:41;;;;;;;1.38;1.10;;;14.50;97.90;;;;;;5113284;28;20085;-45
2023/12/31 09:57:08;;;;;;;1.55;1.00;;;14.50;97.90;;;;;;5113084;28;20405;-45
2023/12/31 09:59:35;;;;;;;1.48;1.00;;;14.50;97.90;;;;;;5111834;28;20435;-45
2023/12/31 10:02:04;;;;;;;1.42;1.08;;;14.60;97.90;;;;;;5112258;28;20062;-45
2023/12/31 10:04:31;;;;;;;1.60;1.05;;;14.60;97.80;;;;;;5113144;28;20084;-45
2023/12/31 10:06:57;;;;;;;1.77;1.27;;;14.60;97.80;;;;;;5113133;28;20016;-45
2023/12/31 10:09:28;;;;;;;2.20;1.38;;;14.60;97.70;;;;;;5112384;28;20059;-45
2023/12/31 10:11:54;;;;;;;2.22;1.30;;;14.70;97.70;;;;;;5093883;27;20401;-45
2023/12/31 10:14:21;;;;;;;2.55;1.60;;;14.70;97.60;;;;;;5093027;28;20027;-45
2023/12/31 10:16:47;;;;;;;1.67;1.40;;;14.70;97.50;;;;;;5091744;28;20119;-44
2023/12/31 10:19:14;;;;;;;2.50;1.40;;;14.70;97.50;;;;;;5093159;28;20024;-45
2023/12/31 10:21:44;;;;;;;2.83;1.50;;;14.80;97.50;;;;;;5093001;28;20032;-44
2023/12/31 10:24:10;;;;;;;3.00;1.40;;;14.80;97.50;;;;;;5091679;28;20400;-45
2023/12/31 10:26:36;;;;;;;2.15;1.40;;;14.80;97.40;;;;;;5092526;28;20107;-45
2023/12/31 10:29:04;;;;;;;2.63;1.52;;;14.90;97.40;;;;;;5095851;28;20115;-45
2023/12/31 10:31:31;;;;;;;2.50;1.52;;;14.90;97.30;;;;;;5095780;28;20484;-44
2023/12/31 10:33:57;;;;;;;1.85;1.40;;;14.90;97.30;;;;;;5096427;28;20109;-45
2023/12/31 10:36:23;;;;;;;2.13;1.58;;;14.90;97.20;;;;;;5096534;28;20024;-45
2023/12/31 10:38:52;;;;;;;2.45;1.48;;;14.90;97.10;;;;;;5096052;28;20024;-44
2023/12/31 10:41:22;;;;;;;2.47;1.50;;;15.00;97.10;;;;;;5097013;28;20497;-45
2023/12/31 10:43:48;;;;;;;2.92;1.35;;;15.00;97.40;;;;;;5095761;28;20107;-44
2023/12/31 10:46:15;;;;;;;2.55;1.67;;;15.00;97.10;;;;;;5095670;28;20373;-45
2023/12/31 10:48:53;;;;;;;3.13;1.50;;;15.00;97.00;;;;;;5096010;28;20470;-45
2023/12/31 10:51:26;;;;;;;2.60;1.65;;;15.10;97.00;;;;;;5095652;28;20497;-45
2023/12/31 10:53:54;;;;;;;2.85;1.80;;;15.10;96.90;;;;;;5096297;28;20028;-44
2023/12/31 10:56:21;;;;;;;3.45;1.90;;;15.10;96.90;;;;;;5095532;28;20016;-45
2023/12/31 10:58:47;;;;;;;4.00;1.83;;;15.10;96.80;;;;;;5095149;28;20094;-44
2023/12/31 11:01:16;;;;;;;2.70;1.75;;;15.20;96.90;;;;;;5095878;28;20051;-45
2023/12/31 11:03:43;;;;;;;2.88;1.90;;;15.20;96.90;;;;;;5095082;28;20022;-45
2023/12/31 11:06:10;;;;;;;3.45;1.92;;;15.30;97.00;;;;;;5094625;28;20056;-45
2023/12/31 11:08:37;;;;;;;3.58;1.90;;;15.30;96.80;;;;;;5095460;28;20509;-45
2023/12/31 11:11:03;;;;;;;3.60;2.10;;;15.30;96.70;;;;;;5095490;28;20028;-45
2023/12/31 11:13:32;;;;;;;3.25;1.88;;;15.40;96.70;;;;;;5095610;28;20127;-45
2023/12/31 11:16:01;;;;;;;2.45;1.63;;;15.40;96.70;;;;;;5094200;28;20024;-45
2023/12/31 11:18:59;;;;;;;4.05;1.92;;;15.40;96.60;;;;;;5094231;28;20039;-45
2023/12/31 11:21:57;;;;;;;3.40;1.95;;;15.50;96.60;;;;;;5094365;28;20028;-45
2023/12/31 11:24:25;;;;;;;3.10;1.90;;;15.50;96.50;;;;;;5096134;28;20122;-45
2023/12/31 11:27:15;;;;;;;3.38;1.88;;;15.50;96.40;;;;;;5094780;28;20031;-44
2023/12/31 11:29:43;;;;;;;3.20;1.70;;;15.50;96.70;;;;;;5095538;28;20377;-45
2023/12/31 11:32:09;;;;;;;3.47;1.80;;;15.60;96.30;;;;;;5094500;28;20016;-45
2023/12/31 11:34:41;;;;;;;2.90;1.63;;;15.60;96.30;;;;;;5095528;28;20087;-45
2023/12/31 11:37:07;;;;;;;3.58;1.98;;;15.60;96.20;;;;;;5095009;28;20103;-45
2023/12/31 11:39:32;;;;;;;2.97;1.98;;;15.60;96.10;;;;;;5094022;28;20028;-45
2023/12/31 11:42:10;;;;;;;3.85;1.67;;;15.70;96.10;;;;;;5093788;28;20551;-45
2023/12/31 11:44:36;;;;;;;3.05;1.73;;;15.70;96.10;;;;;;5094397;28;20440;-45
2023/12/31 11:47:02;;;;;;;3.60;1.73;;;15.70;96.00;;;;;;5093824;28;20023;-45
2023/12/31 11:49:28;;;;;;;3.15;1.70;;;15.70;96.30;;;;;;5094565;28;20397;-45
2023/12/31 11:51:58;;;;;;;3.10;1.35;;;15.70;96.00;;;;;;5093817;28;20028;-45
2023/12/31 11:54:34;;;;;;;3.03;1.75;;;15.70;95.90;;;;;;5110350;28;20024;-46
2023/12/31 11:57:02;;;;;;;4.13;1.60;;;15.80;96.00;;;;;;5094458;28;20024;-45
2023/12/31 11:59:27;;;;;;;2.92;1.60;;;15.80;95.90;;;;;;5093829;28;20036;-44
2023/12/31 12:01:53;;;;;;;1.90;1.40;;;15.80;95.90;;;;;;5095640;28;20020;-44
2023/12/31 12:04:19;;;;;;;2.35;1.52;;;15.80;95.90;;;;;;5094978;28;20020;-45
2023/12/31 12:06:45;;;;;;;2.05;1.45;;;15.80;95.90;;;;;;5094200;28;20386;-44
2023/12/31 12:09:11;;;;;;;3.78;1.60;;;15.80;95.90;;;;;;5093557;28;20016;-45
2023/12/31 12:11:43;;;;;;;2.22;1.45;;;15.80;95.80;;;;;;5093677;28;20024;-45
2023/12/31 12:14:12;;;;;;;2.03;1.42;;;15.80;95.80;;;;;;5094088;28;20474;-45
2023/12/31 12:16:40;;;;;;;2.08;1.42;;;15.80;95.80;;;;;;5093821;28;20099;-45
2023/12/31 12:19:06;;;;;;;4.88;1.52;;;15.80;95.80;;;;;;5093506;28;20020;-45
2023/12/31 12:21:34;;;;;;;2.63;1.42;;;15.80;95.80;;;;;;5094217;28;20090;-45
2023/12/31 12:23:59;;;;;;;1.98;1.02;;;15.80;95.80;;;;;;5094055;28;20032;-45
2023/12/31 12:26:25;;;;;;;2.25;1.17;;;15.80;95.70;;;;;;5093595;28;20031;-45
2023/12/31 12:28:54;;;;;;;2.22;1.40;;;15.80;95.70;;;;;;5093291;28;20040;-45
2023/12/31 12:31:20;;;;;;;3.42;1.42;;;15.80;95.70;;;;;;5093387;28;20024;-44
2023/12/31 12:33:54;;;;;;;2.35;1.23;;;15.80;95.70;;;;;;5093835;28;20020;-45
2023/12/31 12:36:20;;;;;;;;;;;15.80;95.70;;;;;;5093860;28;20031;-45
2023/12/31 12:38:48;;;;;;;2.08;1.40;;;15.80;95.70;;;;;;5094806;28;20235;-45
2023/12/31 12:41:23;;;;;;;2.28;1.40;;;15.80;95.70;;;;;;5093359;28;20020;-45
2023/12/31 12:44:06;;;;;;;2.30;1.50;;;15.80;95.70;;;;;;5093798;28;20040;-45
2023/12/31 12:46:33;;;;;;;2.05;1.30;;;15.80;95.70;;;;;;5093744;28;20028;-45